createdAt,value
2016-10-01T00:00:19.581Z,73.11
2016-10-01T00:01:19.521Z,73.11
2016-10-01T00:02:19.488Z,72.92
2016-10-01T00:03:19.124Z,73.3
2016-10-01T00:04:19.075Z,72.73
2016-10-01T00:05:19.331Z,73.05
2016-10-01T00:06:19.305Z,72.77
2016-10-01T00:07:18.938Z,73.05
2016-10-01T00:08:19.236Z,72.96
2016-10-01T00:09:19.147Z,72.86
2016-10-01T00:10:19.099Z,72.96
2016-10-01T00:11:19.248Z,73.34
2016-10-01T00:12:19.010Z,73.54
2016-10-01T00:13:18.634Z,73.05
2016-10-01T00:14:18.593Z,73.44
2016-10-01T00:15:18.854Z,73.72
2016-10-01T00:16:19.092Z,74.01
2016-10-01T00:17:19.157Z,73.34
2016-10-01T00:18:18.708Z,73.63
2016-10-01T00:19:18.660Z,73.82
2016-10-01T00:20:18.609Z,74.3
2016-10-01T00:21:18.252Z,74.2
2016-10-01T00:22:18.507Z,74.2
2016-10-01T00:23:18.861Z,74.3
2016-10-01T00:24:18.304Z,74.3
2016-10-01T00:25:18.571Z,74.58
2016-10-01T00:26:18.309Z,74.87
2016-10-01T00:27:18.163Z,75.12
2016-10-01T00:28:18.428Z,75.41
2016-10-01T00:29:18.063Z,75.51
2016-10-01T00:30:18.319Z,75.6
2016-10-01T00:31:18.062Z,75.31
2016-10-01T00:32:18.222Z,75.41
2016-10-01T00:33:18.374Z,75.7
2016-10-01T00:34:17.927Z,75.98
2016-10-01T00:35:17.880Z,76.18
2016-10-01T00:36:18.033Z,76.27
2016-10-01T00:37:17.797Z,76.27
2016-10-01T00:38:17.428Z,76.27
2016-10-01T00:39:17.377Z,76.18
2016-10-01T00:40:17.886Z,76.18
2016-10-01T00:41:17.595Z,76.56
2016-10-01T00:42:17.533Z,76.37
2016-10-01T00:43:17.564Z,76.65
2016-10-01T00:44:17.646Z,76.75
2016-10-01T00:45:17.395Z,77.04
2016-10-01T00:46:17.339Z,77.04
2016-10-01T00:47:17.295Z,76.94
2016-10-01T00:48:16.944Z,77.23
2016-10-01T00:49:17.193Z,77.23
2016-10-01T00:50:17.160Z,76.84
2016-10-01T00:51:17.100Z,76.94
2016-10-01T00:52:17.044Z,76.75
2016-10-01T00:53:17.031Z,76.94
2016-10-01T00:54:16.941Z,76.46
2016-10-01T00:55:16.913Z,77.33
2016-10-01T00:56:16.853Z,77.13
2016-10-01T00:57:16.501Z,77.23
2016-10-01T00:58:16.806Z,77.9
2016-10-01T00:59:16.400Z,78.28
2016-10-01T01:00:16.346Z,78.19
2016-10-01T01:01:16.615Z,78.19
2016-10-01T01:02:16.459Z,77.33
2016-10-01T01:03:16.500Z,78.19
2016-10-01T01:04:16.469Z,78.19
2016-10-01T01:05:16.405Z,77.9
2016-10-01T01:06:16.059Z,77.99
2016-10-01T01:07:16.325Z,77.99
2016-10-01T01:08:16.262Z,77.7
2016-10-01T01:09:15.907Z,77.61
2016-10-01T01:10:15.868Z,77.61
2016-10-01T01:11:16.120Z,76.94
2016-10-01T01:12:16.068Z,77.04
2016-10-01T01:13:16.228Z,77.13
2016-10-01T01:14:16.000Z,76.84
2016-10-01T01:15:16.373Z,76.98
2016-10-01T01:16:15.566Z,77.36
2016-10-01T01:17:15.848Z,77.36
2016-10-01T01:18:15.784Z,76.98
2016-10-01T01:19:15.733Z,76.94
2016-10-01T01:20:15.680Z,77.08
2016-10-01T01:21:15.879Z,76.69
2016-10-01T01:22:15.801Z,77.42
2016-10-01T01:23:15.550Z,77.7
2016-10-01T01:24:15.488Z,77.99
2016-10-01T01:25:15.141Z,77.99
2016-10-01T01:26:15.096Z,78.19
2016-10-01T01:27:15.340Z,78.86
2016-10-01T01:28:14.985Z,79.14
2016-10-01T01:29:15.247Z,79.14
2016-10-01T01:30:15.197Z,78.95
2016-10-01T01:31:15.224Z,79.52
2016-10-01T01:32:15.131Z,78.95
2016-10-01T01:33:15.042Z,79.62
2016-10-01T01:34:14.999Z,79.33
2016-10-01T01:35:14.946Z,79.24
2016-10-01T01:36:14.896Z,79.62
2016-10-01T01:37:14.846Z,79.62
2016-10-01T01:38:14.799Z,80.25
2016-10-01T01:39:14.448Z,80.58
2016-10-01T01:40:14.917Z,80.29
2016-10-01T01:41:14.352Z,80
2016-10-01T01:42:14.610Z,80.1
2016-10-01T01:43:14.250Z,80
2016-10-01T01:44:14.207Z,80.29
2016-10-01T01:45:14.860Z,80
2016-10-01T01:46:14.416Z,80.29
2016-10-01T01:47:14.054Z,80.29
2016-10-01T01:48:14.315Z,80.67
2016-10-01T01:49:14.257Z,80.48
2016-10-01T01:50:14.424Z,80.48
2016-10-01T01:51:13.863Z,81.15
2016-10-01T01:52:13.810Z,80.77
2016-10-01T01:53:13.758Z,81.15
2016-10-01T01:54:13.714Z,80.67
2016-10-01T01:55:13.972Z,81.05
2016-10-01T01:56:13.921Z,81.05
2016-10-01T01:57:14.278Z,81.21
2016-10-01T01:58:13.521Z,81.4
2016-10-01T01:59:13.811Z,81.4
2016-10-01T02:00:13.428Z,81.92
2016-10-01T02:01:13.371Z,81.44
2016-10-01T02:02:13.628Z,81.82
2016-10-01T02:03:13.273Z,82.11
2016-10-01T02:04:13.551Z,80.96
2016-10-01T02:05:13.479Z,81.25
2016-10-01T02:06:13.132Z,81.05
2016-10-01T02:07:13.079Z,81.82
2016-10-01T02:08:13.324Z,81.44
2016-10-01T02:09:13.560Z,82.3
2016-10-01T02:10:13.428Z,82.07
2016-10-01T02:11:12.872Z,82.26
2016-10-01T02:12:13.157Z,82.45
2016-10-01T02:13:13.087Z,82.45
2016-10-01T02:14:13.037Z,82.83
2016-10-01T02:15:12.997Z,82.54
2016-10-01T02:16:13.154Z,82.74
2016-10-01T02:17:12.884Z,82.3
2016-10-01T02:18:12.844Z,82.93
2016-10-01T02:19:12.795Z,83.03
2016-10-01T02:20:12.760Z,83.03
2016-10-01T02:21:12.691Z,83.03
2016-10-01T02:22:12.634Z,82.64
2016-10-01T02:23:12.604Z,83.5
2016-10-01T02:24:12.552Z,83.5
2016-10-01T02:25:12.714Z,83.5
2016-10-01T02:26:12.442Z,82.93
2016-10-01T02:27:12.404Z,82.93
2016-10-01T02:28:12.553Z,83.03
2016-10-01T02:29:12.295Z,83.5
2016-10-01T02:30:12.262Z,83.36
2016-10-01T02:31:11.901Z,83.4
2016-10-01T02:32:12.151Z,83.69
2016-10-01T02:33:12.110Z,83.6
2016-10-01T02:34:12.088Z,83.6
2016-10-01T02:35:12.010Z,83.79
2016-10-01T02:36:11.965Z,83.83
2016-10-01T02:37:12.109Z,83.4
2016-10-01T02:38:12.067Z,83.98
2016-10-01T02:39:11.810Z,83.98
2016-10-01T02:40:11.758Z,84.17
2016-10-01T02:41:11.911Z,84.84
2016-10-01T02:42:11.667Z,84.08
2016-10-01T02:43:11.614Z,84.75
2016-10-01T02:45:11.518Z,84.94
2016-10-01T02:46:11.663Z,85.13
2016-10-01T02:47:11.424Z,85.22
2016-10-01T02:48:11.373Z,84.55
2016-10-01T02:49:11.328Z,85.51
2016-10-01T02:50:11.293Z,85.66
2016-10-01T02:51:11.216Z,85.57
2016-10-01T02:52:11.277Z,85.75
2016-10-01T02:53:11.126Z,85.66
2016-10-01T02:54:11.073Z,85.66
2016-10-01T02:55:10.714Z,85.51
2016-10-01T02:56:10.675Z,85.41
2016-10-01T02:57:10.928Z,86.08
2016-10-01T02:58:10.780Z,85.03
2016-10-01T02:59:10.528Z,85.13
2016-10-01T03:00:10.788Z,85.03
2016-10-01T03:01:10.740Z,85.27
2016-10-01T03:02:10.373Z,84.69
2016-10-01T03:03:10.628Z,84.22
2016-10-01T03:04:10.281Z,84.59
2016-10-01T03:05:10.527Z,85.17
2016-10-01T03:06:10.690Z,85.17
2016-10-01T03:07:10.463Z,84.5
2016-10-01T03:08:10.387Z,84.31
2016-10-01T03:09:10.021Z,84.79
2016-10-01T03:10:10.281Z,84.65
2016-10-01T03:11:09.937Z,85.51
2016-10-01T03:12:10.202Z,85.51
2016-10-01T03:13:10.137Z,85.51
2016-10-01T03:14:10.099Z,85.51
2016-10-01T03:15:10.043Z,85.71
2016-10-01T03:16:09.690Z,86.18
2016-10-01T03:17:09.938Z,85.89
2016-10-01T03:18:09.595Z,85.61
2016-10-01T03:19:09.845Z,85.61
2016-10-01T03:20:09.793Z,85.41
2016-10-01T03:21:09.749Z,85.13
2016-10-01T03:22:09.905Z,85.32
2016-10-01T03:23:09.657Z,86.08
2016-10-01T03:24:09.680Z,85.71
2016-10-01T03:25:09.311Z,85.41
2016-10-01T03:26:09.508Z,85.89
2016-10-01T03:27:09.450Z,86.37
2016-10-01T03:28:09.464Z,86.18
2016-10-01T03:29:09.575Z,86.37
2016-10-01T03:30:09.311Z,85.61
2016-10-01T03:31:09.251Z,86.37
2016-10-01T03:32:09.214Z,85.89
2016-10-01T03:33:09.163Z,85.51
2016-10-01T03:34:09.110Z,85.71
2016-10-01T03:35:09.065Z,85.32
2016-10-01T03:36:08.712Z,85.65
2016-10-01T03:37:08.959Z,85.55
2016-10-01T03:38:08.621Z,85.27
2016-10-01T03:39:08.864Z,85.55
2016-10-01T03:40:08.821Z,85.46
2016-10-01T03:41:08.792Z,85.17
2016-10-01T03:42:08.714Z,85.89
2016-10-01T03:43:08.688Z,85.89
2016-10-01T03:44:08.620Z,86.28
2016-10-01T03:45:08.571Z,86.18
2016-10-01T03:46:08.520Z,85.99
2016-10-01T03:47:08.471Z,85.55
2016-10-01T03:48:08.428Z,86.18
2016-10-01T03:49:08.059Z,86.18
2016-10-01T03:50:08.426Z,85.75
2016-10-01T03:51:08.277Z,85.75
2016-10-01T03:52:08.228Z,85.75
2016-10-01T03:53:08.196Z,85.65
2016-10-01T03:54:08.149Z,85.46
2016-10-01T03:55:08.117Z,85.36
2016-10-01T03:56:08.042Z,85.27
2016-10-01T03:57:07.994Z,85.84
2016-10-01T03:58:07.935Z,85.75
2016-10-01T03:59:07.882Z,85.84
2016-10-01T04:00:07.843Z,86.13
2016-10-01T04:01:07.785Z,85.84
2016-10-01T04:02:07.435Z,85.84
2016-10-01T04:03:07.694Z,86.18
2016-10-01T04:04:07.644Z,85.99
2016-10-01T04:05:07.594Z,86.18
2016-10-01T04:06:07.439Z,86.41
2016-10-01T04:07:07.508Z,85.84
2016-10-01T04:08:07.431Z,86.32
2016-10-01T04:09:07.089Z,86.8
2016-10-01T04:10:07.357Z,86.04
2016-10-01T04:11:06.981Z,85.94
2016-10-01T04:12:07.238Z,86.32
2016-10-01T04:13:07.430Z,86.04
2016-10-01T04:14:06.836Z,86.32
2016-10-01T04:15:07.126Z,85.46
2016-10-01T04:16:07.056Z,85.36
2016-10-01T04:17:21.579Z,85.65
2016-10-01T04:18:06.851Z,85.55
2016-10-01T04:19:07.135Z,85.46
2016-10-01T04:20:07.062Z,85.46
2016-10-01T04:21:07.011Z,84.88
2016-10-01T04:22:06.945Z,84.79
2016-10-01T04:23:06.713Z,85.08
2016-10-01T04:24:06.348Z,85.84
2016-10-01T04:25:06.614Z,85.8
2016-10-01T04:26:06.562Z,85.94
2016-10-01T04:27:06.526Z,85.99
2016-10-01T04:28:06.463Z,86.22
2016-10-01T04:29:06.406Z,86.51
2016-10-01T04:30:06.058Z,86.13
2016-10-01T04:31:06.000Z,86.04
2016-10-01T04:32:06.265Z,86.13
2016-10-01T04:33:06.218Z,85.55
2016-10-01T04:34:05.865Z,85.65
2016-10-01T04:35:06.124Z,86.41
2016-10-01T04:36:06.085Z,85.8
2016-10-01T04:37:06.021Z,85.89
2016-10-01T04:38:05.968Z,85.99
2016-10-01T04:39:05.825Z,86.94
2016-10-01T04:40:05.577Z,86.76
2016-10-01T04:41:05.522Z,85.99
2016-10-01T04:42:05.781Z,86.37
2016-10-01T04:43:05.763Z,85.65
2016-10-01T04:44:05.726Z,86.08
2016-10-01T04:45:05.633Z,85.46
2016-10-01T04:46:05.358Z,85.51
2016-10-01T04:47:05.226Z,84.94
2016-10-01T04:48:05.478Z,85.22
2016-10-01T04:49:05.438Z,85.13
2016-10-01T04:50:05.101Z,84.55
2016-10-01T04:51:05.339Z,85.36
2016-10-01T04:52:05.289Z,85.71
2016-10-01T04:53:05.244Z,85.51
2016-10-01T04:54:04.879Z,84.94
2016-10-01T04:55:05.129Z,84.46
2016-10-01T04:56:05.140Z,85.61
2016-10-01T04:57:05.041Z,85.41
2016-10-01T04:58:04.995Z,85.51
2016-10-01T04:59:04.934Z,85.32
2016-10-01T05:00:04.894Z,85.32
2016-10-01T05:01:04.836Z,86.08
2016-10-01T05:02:04.997Z,85.99
2016-10-01T05:03:04.745Z,86.18
2016-10-01T05:04:04.699Z,85.41
2016-10-01T05:05:04.650Z,85.61
2016-10-01T05:06:04.491Z,85.41
2016-10-01T05:07:04.243Z,85.71
2016-10-01T05:08:04.200Z,84.84
2016-10-01T05:09:04.141Z,85.22
2016-10-01T05:10:04.398Z,84.75
2016-10-01T05:11:04.039Z,84.65
2016-10-01T05:12:04.718Z,85.03
2016-10-01T05:13:04.476Z,85.41
2016-10-01T05:14:04.405Z,85.03
2016-10-01T05:15:04.065Z,85.03
2016-10-01T05:16:04.303Z,85.51
2016-10-01T05:17:04.461Z,85.22
2016-10-01T05:18:03.720Z,84.55
2016-10-01T05:19:04.160Z,84.75
2016-10-01T05:20:03.907Z,84.75
2016-10-01T05:21:03.853Z,85.03
2016-10-01T05:22:04.049Z,84.27
2016-10-01T05:23:03.761Z,84.55
2016-10-01T05:24:03.604Z,83.98
2016-10-01T05:25:03.558Z,84.27
2016-10-01T05:26:03.307Z,84.46
2016-10-01T05:27:03.253Z,84.65
2016-10-01T05:28:03.722Z,83.98
2016-10-01T05:29:03.473Z,84.08
2016-10-01T05:30:03.422Z,83.69
2016-10-01T05:31:03.365Z,83.64
2016-10-01T05:32:03.518Z,84.12
2016-10-01T05:33:02.964Z,83.45
2016-10-01T05:34:03.218Z,83.73
2016-10-01T05:35:02.876Z,83.79
2016-10-01T05:36:03.125Z,83.5
2016-10-01T05:37:03.085Z,83.4
2016-10-01T05:38:02.711Z,83.5
2016-10-01T05:39:02.966Z,83.79
2016-10-01T05:40:02.923Z,83.31
2016-10-01T05:41:02.879Z,83.12
2016-10-01T05:42:02.833Z,83.4
2016-10-01T05:43:02.782Z,83.4
2016-10-01T05:44:02.721Z,83.79
2016-10-01T05:45:02.689Z,83.4
2016-10-01T05:46:02.649Z,83.31
2016-10-01T05:47:02.584Z,83.69
2016-10-01T05:48:02.537Z,83.65
2016-10-01T05:49:02.490Z,84.13
2016-10-01T05:50:02.657Z,83.75
2016-10-01T05:51:02.595Z,83.56
2016-10-01T05:52:02.348Z,83.94
2016-10-01T05:53:02.289Z,83.65
2016-10-01T05:54:02.435Z,83.27
2016-10-01T05:55:01.896Z,83.22
2016-10-01T05:56:02.351Z,82.74
2016-10-01T05:57:02.104Z,83.4
2016-10-01T05:58:03.612Z,82.79
2016-10-01T05:59:02.419Z,82.98
2016-10-01T06:00:01.938Z,83.03
2016-10-01T06:01:01.584Z,83.08
2016-10-01T06:02:01.865Z,83.37
2016-10-01T06:03:01.502Z,83.22
2016-10-01T06:04:01.960Z,82.93
2016-10-01T06:05:01.704Z,83.46
2016-10-01T06:06:02.249Z,83.46
2016-10-01T06:07:01.805Z,83.27
2016-10-01T06:08:01.233Z,83.17
2016-10-01T06:09:01.490Z,83.46
2016-10-01T06:10:01.451Z,82.89
2016-10-01T06:11:01.394Z,83.03
2016-10-01T06:12:01.545Z,83.27
2016-10-01T06:13:02.499Z,82.93
2016-10-01T06:14:01.449Z,83.22
2016-10-01T06:15:01.196Z,83.22
2016-10-01T06:16:00.837Z,82.98
2016-10-01T06:17:01.116Z,82.89
2016-10-01T06:18:01.249Z,83.27
2016-10-01T06:19:01.201Z,83.08
2016-10-01T06:20:00.960Z,83.08
2016-10-01T06:21:00.921Z,82.7
2016-10-01T06:22:00.855Z,83.08
2016-10-01T06:23:00.811Z,82.89
2016-10-01T06:24:00.757Z,83.08
2016-10-01T06:25:00.406Z,82.7
2016-10-01T06:26:00.650Z,82.98
2016-10-01T06:27:00.623Z,83.08
2016-10-01T06:28:00.566Z,82.89
2016-10-01T06:29:00.511Z,83.46
2016-10-01T06:30:00.479Z,83.08
2016-10-01T06:31:00.418Z,82.93
2016-10-01T06:32:00.062Z,82.83
2016-10-01T06:33:00.307Z,82.54
2016-10-01T06:34:00.272Z,82.54
2016-10-01T06:34:59.915Z,82.54
2016-10-01T06:36:00.164Z,83.03
2016-10-01T06:37:00.516Z,82.93
2016-10-01T06:38:00.072Z,82.7
2016-10-01T06:39:00.241Z,82.6
2016-10-01T06:39:59.675Z,82.79
2016-10-01T06:40:59.615Z,83.08
2016-10-01T06:41:59.869Z,83.08
2016-10-01T06:42:59.824Z,83.37
2016-10-01T06:43:59.780Z,82.7
2016-10-01T06:44:59.723Z,82.79
2016-10-01T06:45:59.884Z,82.89
2016-10-01T06:47:07.649Z,83.17
2016-10-01T06:47:59.779Z,82.41
2016-10-01T06:48:59.551Z,82.51
2016-10-01T06:49:59.172Z,82.12
2016-10-01T06:50:59.432Z,82.31
2016-10-01T06:51:59.578Z,82.12
2016-10-01T06:52:59.535Z,81.36
2016-10-01T06:53:59.360Z,81.21
2016-10-01T06:54:59.226Z,80.92
2016-10-01T06:55:59.178Z,81.11
2016-10-01T06:56:59.530Z,81.21
2016-10-01T06:57:59.274Z,81.3
2016-10-01T06:58:59.438Z,80.73
2016-10-01T06:59:59.180Z,80.82
2016-10-01T07:00:59.216Z,81.3
2016-10-01T07:01:58.769Z,81.4
2016-10-01T07:02:58.828Z,80.63
2016-10-01T07:03:59.191Z,81.21
2016-10-01T07:04:58.933Z,80.92
2016-10-01T07:05:58.684Z,80.92
2016-10-01T07:06:58.852Z,80.63
2016-10-01T07:07:58.785Z,81.02
2016-10-01T07:08:58.535Z,80.92
2016-10-01T07:09:58.684Z,80.82
2016-10-01T07:10:59.055Z,81.11
2016-10-01T07:11:58.383Z,81.21
2016-10-01T07:12:58.397Z,80.63
2016-10-01T07:13:58.502Z,80.82
2016-10-01T07:14:57.945Z,81.11
2016-10-01T07:15:58.200Z,80.73
2016-10-01T07:16:58.757Z,80.92
2016-10-01T07:17:58.097Z,81.21
2016-10-01T07:18:58.041Z,81.11
2016-10-01T07:19:58.255Z,80.82
2016-10-01T07:20:57.945Z,81.21
2016-10-01T07:21:58.094Z,81.11
2016-10-01T07:22:57.851Z,81.3
2016-10-01T07:23:57.995Z,81.21
2016-10-01T07:24:57.778Z,81.11
2016-10-01T07:25:57.792Z,80.54
2016-10-01T07:26:57.851Z,81.11
2016-10-01T07:27:57.588Z,80.92
2016-10-01T07:28:57.554Z,81.21
2016-10-01T07:29:57.511Z,81.02
2016-10-01T07:30:57.670Z,81.68
2016-10-01T07:31:57.406Z,81.4
2016-10-01T07:32:57.049Z,81.74
2016-10-01T07:33:57.310Z,82.03
2016-10-01T07:34:57.245Z,81.59
2016-10-01T07:35:57.235Z,82.07
2016-10-01T07:36:57.147Z,81.97
2016-10-01T07:37:57.315Z,80.92
2016-10-01T07:38:57.454Z,80.92
2016-10-01T07:39:56.692Z,82.07
2016-10-01T07:40:56.650Z,81.11
2016-10-01T07:41:56.991Z,81.3
2016-10-01T07:42:57.056Z,81.11
2016-10-01T07:43:57.025Z,81.36
2016-10-01T07:44:56.973Z,81.55
2016-10-01T07:45:56.759Z,81.36
2016-10-01T07:46:56.870Z,82.22
2016-10-01T07:47:56.616Z,81.93
2016-10-01T07:48:56.262Z,82.12
2016-10-01T07:49:56.714Z,82.22
2016-10-01T07:50:56.463Z,82.31
2016-10-01T07:52:11.013Z,82.22
2016-10-01T07:52:56.565Z,81.97
2016-10-01T07:53:56.321Z,82.03
2016-10-01T07:54:55.964Z,82.07
2016-10-01T07:55:56.248Z,82.07
2016-10-01T07:56:56.160Z,82.17
2016-10-01T07:57:56.181Z,81.3
2016-10-01T07:58:56.064Z,82.17
2016-10-01T07:59:56.251Z,82.26
2016-10-01T08:00:55.971Z,81.93
2016-10-01T08:01:55.820Z,82.26
2016-10-01T08:02:55.757Z,81.55
2016-10-01T08:03:55.818Z,82.26
2016-10-01T08:04:55.456Z,82.17
2016-10-01T08:05:55.724Z,82.26
2016-10-01T08:06:55.673Z,81.97
2016-10-01T08:07:55.625Z,82.26
2016-10-01T08:08:55.472Z,81.11
2016-10-01T08:09:55.532Z,81.97
2016-10-01T08:10:55.679Z,81.88
2016-10-01T08:11:55.472Z,81.78
2016-10-01T08:12:55.436Z,81.4
2016-10-01T08:13:55.016Z,81.68
2016-10-01T08:14:55.327Z,81.97
2016-10-01T08:15:55.484Z,81.11
2016-10-01T08:16:55.084Z,80.82
2016-10-01T08:17:55.133Z,80.73
2016-10-01T08:18:55.293Z,81.02
2016-10-01T08:19:55.039Z,80.92
2016-10-01T08:20:54.981Z,81.11
2016-10-01T08:21:54.940Z,80.63
2016-10-01T08:22:54.903Z,81.3
2016-10-01T08:23:54.849Z,81.21
2016-10-01T08:24:55.189Z,81.02
2016-10-01T08:25:54.939Z,81.21
2016-10-01T08:26:54.592Z,80.73
2016-10-01T08:27:54.627Z,81.02
2016-10-01T08:28:54.581Z,81.3
2016-10-01T08:29:54.448Z,81.11
2016-10-01T08:30:54.478Z,80.92
2016-10-01T08:31:54.452Z,81.11
2016-10-01T08:32:54.401Z,81.11
2016-10-01T08:33:54.545Z,81.4
2016-10-01T08:34:54.296Z,81.11
2016-10-01T08:35:54.239Z,81.11
2016-10-01T08:36:54.189Z,82.07
2016-10-01T08:37:54.144Z,81.78
2016-10-01T08:38:54.118Z,81.21
2016-10-01T08:39:54.048Z,81.21
2016-10-01T08:40:53.687Z,80.25
2016-10-01T08:41:54.154Z,80.44
2016-10-01T08:42:54.097Z,79.96
2016-10-01T08:43:53.847Z,80.25
2016-10-01T08:44:53.859Z,80.73
2016-10-01T08:45:53.748Z,80.63
2016-10-01T08:46:53.789Z,79.87
2016-10-01T08:47:53.618Z,80.06
2016-10-01T08:48:53.795Z,80
2016-10-01T08:49:53.249Z,80.06
2016-10-01T08:50:53.496Z,79.77
2016-10-01T08:51:53.144Z,79.96
2016-10-01T08:52:53.103Z,79.77
2016-10-01T08:53:53.054Z,80.06
2016-10-01T08:54:53.306Z,80.25
2016-10-01T08:55:53.260Z,79.39
2016-10-01T08:56:53.134Z,79.62
2016-10-01T08:57:53.060Z,79.43
2016-10-01T08:58:53.131Z,79.72
2016-10-01T08:59:52.757Z,79.81
2016-10-01T09:00:52.737Z,80.29
2016-10-01T09:01:52.970Z,79.72
2016-10-01T09:02:52.926Z,79.68
2016-10-01T09:03:53.281Z,80.1
2016-10-01T09:04:52.828Z,79.62
2016-10-01T09:05:52.806Z,79.33
2016-10-01T09:06:52.819Z,78.76
2016-10-01T09:07:52.679Z,78.76
2016-10-01T09:08:52.626Z,78.86
2016-10-01T09:09:52.569Z,78.86
2016-10-01T09:10:52.717Z,79.05
2016-10-01T09:11:52.690Z,78.66
2016-10-01T09:12:52.447Z,78.47
2016-10-01T09:13:52.576Z,78.32
2016-10-01T09:14:52.542Z,77.75
2016-10-01T09:15:52.286Z,77.75
2016-10-01T09:16:51.976Z,78.13
2016-10-01T09:17:52.606Z,78.13
2016-10-01T09:18:52.345Z,77.75
2016-10-01T09:19:52.085Z,77.65
2016-10-01T09:20:52.278Z,77.55
2016-10-01T09:21:51.994Z,77.46
2016-10-01T09:22:52.136Z,77.46
2016-10-01T09:23:51.892Z,77.75
2016-10-01T09:24:51.861Z,77.75
2016-10-01T09:25:51.689Z,78.22
2016-10-01T09:26:51.769Z,78.03
2016-10-01T09:27:51.691Z,78.09
2016-10-01T09:28:51.707Z,78.28
2016-10-01T09:29:51.622Z,78.28
2016-10-01T09:30:51.787Z,78.66
2016-10-01T09:31:51.715Z,78.38
2016-10-01T09:32:51.153Z,78.47
2016-10-01T09:33:51.446Z,78.47
2016-10-01T09:34:51.355Z,78.47
2016-10-01T09:35:50.998Z,78.38
2016-10-01T09:36:51.258Z,78.28
2016-10-01T09:37:51.206Z,77.99
2016-10-01T09:38:51.157Z,77.84
2016-10-01T09:39:51.117Z,77.75
2016-10-01T09:40:50.766Z,77.36
2016-10-01T09:41:50.705Z,77.55
2016-10-01T09:42:50.659Z,77.46
2016-10-01T09:43:50.929Z,77.36
2016-10-01T09:44:50.867Z,77.94
2016-10-01T09:45:50.835Z,77.36
2016-10-01T09:46:50.479Z,77.75
2016-10-01T09:47:50.613Z,77.55
2016-10-01T09:48:50.372Z,77.46
2016-10-01T09:49:50.631Z,77.08
2016-10-01T09:50:50.576Z,76.98
2016-10-01T09:51:50.533Z,77.17
2016-10-01T09:52:50.489Z,76.82
2016-10-01T09:53:50.442Z,76.6
2016-10-01T09:54:50.394Z,76.4
2016-10-01T09:55:50.337Z,75.77
2016-10-01T09:56:50.692Z,76.15
2016-10-01T09:57:50.241Z,75.77
2016-10-01T09:58:50.400Z,75.77
2016-10-01T09:59:50.139Z,75.96
2016-10-01T10:00:50.088Z,75.58
2016-10-01T10:01:50.651Z,75.87
2016-10-01T10:02:50.200Z,75.96
2016-10-01T10:03:50.196Z,75.39
2016-10-01T10:04:49.899Z,75.58
2016-10-01T10:05:50.074Z,75.58
2016-10-01T10:06:50.253Z,75.68
2016-10-01T10:07:49.838Z,75.77
2016-10-01T10:08:49.711Z,75.29
2016-10-01T10:09:49.723Z,75.48
2016-10-01T10:10:49.614Z,75.39
2016-10-01T10:11:49.564Z,75.48
2016-10-01T10:12:49.515Z,75.77
2016-10-01T10:13:49.504Z,75.48
2016-10-01T10:14:49.418Z,75.48
2016-10-01T10:15:49.780Z,75.58
2016-10-01T10:16:49.317Z,75.77
2016-10-01T10:17:49.468Z,75.68
2016-10-01T10:18:49.254Z,75.68
2016-10-01T10:19:49.247Z,75.87
2016-10-01T10:20:49.149Z,75.68
2016-10-01T10:21:49.288Z,76.15
2016-10-01T10:22:49.045Z,76.25
2016-10-01T10:23:49.045Z,76.15
2016-10-01T10:24:48.939Z,76.25
2016-10-01T10:25:48.597Z,75.68
2016-10-01T10:26:49.049Z,75.68
2016-10-01T10:27:48.802Z,75.68
2016-10-01T10:28:48.741Z,75.96
2016-10-01T10:29:48.710Z,75.87
2016-10-01T10:30:48.338Z,75.96
2016-10-01T10:31:48.599Z,75.58
2016-10-01T10:32:48.556Z,75.58
2016-10-01T10:33:48.498Z,75.77
2016-10-01T10:34:48.452Z,75.2
2016-10-01T10:35:48.605Z,74.82
2016-10-01T10:36:48.354Z,74.91
2016-10-01T10:37:48.710Z,74.72
2016-10-01T10:38:48.265Z,74.85
2016-10-01T10:39:48.407Z,74.47
2016-10-01T10:40:48.169Z,74.57
2016-10-01T10:41:48.511Z,74.08
2016-10-01T10:42:48.060Z,74.37
2016-10-01T10:43:48.095Z,74.08
2016-10-01T10:44:47.973Z,74.18
2016-10-01T10:45:47.621Z,74.18
2016-10-01T10:46:48.106Z,74.37
2016-10-01T10:47:48.048Z,74.66
2016-10-01T10:48:47.781Z,74.52
2016-10-01T10:49:47.742Z,74.43
2016-10-01T10:50:47.892Z,74.66
2016-10-01T10:51:48.051Z,74.57
2016-10-01T10:52:47.991Z,74.66
2016-10-01T10:53:47.617Z,73.8
2016-10-01T10:54:47.488Z,73.7
2016-10-01T10:55:47.655Z,73.99
2016-10-01T10:56:47.613Z,73.51
2016-10-01T10:57:47.347Z,73.7
2016-10-01T10:58:47.551Z,73.41
2016-10-01T10:59:47.459Z,72.74
2016-10-01T11:00:47.209Z,73.55
2016-10-01T11:01:47.156Z,73.61
2016-10-01T11:02:47.127Z,73.13
2016-10-01T11:03:47.055Z,72.88
2016-10-01T11:04:47.017Z,73.13
2016-10-01T11:05:46.973Z,72.68
2016-10-01T11:06:47.105Z,72.49
2016-10-01T11:07:47.085Z,72.68
2016-10-01T11:08:47.234Z,72.84
2016-10-01T11:09:46.465Z,72.74
2016-10-01T11:10:46.741Z,73.32
2016-10-01T11:11:46.696Z,72.74
2016-10-01T11:12:46.335Z,72.68
2016-10-01T11:13:46.590Z,72.59
2016-10-01T11:14:46.751Z,72.68
2016-10-01T11:15:46.733Z,73.13
2016-10-01T11:16:46.437Z,72.84
2016-10-01T11:17:46.409Z,72.64
2016-10-01T11:18:46.363Z,72.59
2016-10-01T11:19:46.291Z,72.2
2016-10-01T11:20:46.248Z,72.2
2016-10-01T11:21:46.403Z,71.92
2016-10-01T11:22:46.360Z,71.63
2016-10-01T11:23:45.818Z,71.28
2016-10-01T11:24:46.263Z,70.99
2016-10-01T11:25:46.016Z,70.7
2016-10-01T11:26:45.966Z,70.9
2016-10-01T11:27:46.112Z,70.51
2016-10-01T11:28:45.881Z,70.32
2016-10-01T11:29:46.034Z,70.9
2016-10-01T11:30:45.776Z,70.51
2016-10-01T11:31:45.931Z,70.9
2016-10-01T11:32:46.083Z,70.8
2016-10-01T11:33:45.636Z,71.28
2016-10-01T11:34:45.599Z,71.09
2016-10-01T11:35:45.239Z,70.99
2016-10-01T11:36:45.599Z,70.51
2016-10-01T11:37:45.450Z,70.23
2016-10-01T11:38:45.804Z,70.8
2016-10-01T11:39:45.558Z,70.61
2016-10-01T11:40:45.515Z,71.37
2016-10-01T11:41:45.268Z,70.86
2016-10-01T11:42:45.228Z,71.72
2016-10-01T11:43:45.214Z,71.53
2016-10-01T11:44:45.325Z,71.53
2016-10-01T11:45:45.090Z,71.05
2016-10-01T11:46:45.430Z,70.86
2016-10-01T11:47:45.019Z,70.96
2016-10-01T11:48:44.940Z,71.19
2016-10-01T11:49:44.810Z,70.86
2016-10-01T11:50:44.842Z,70.9
2016-10-01T11:51:45.223Z,71.28
2016-10-01T11:52:44.763Z,70.8
2016-10-01T11:53:44.705Z,70.51
2016-10-01T11:54:45.029Z,70.99
2016-10-01T11:55:44.595Z,70.7
2016-10-01T11:56:44.753Z,70.17
2016-10-01T11:57:44.526Z,69.68
2016-10-01T11:58:44.429Z,69.59
2016-10-01T11:59:44.487Z,69.97
2016-10-01T12:00:44.253Z,69.01
2016-10-01T12:01:44.468Z,68.91
2016-10-01T12:02:44.445Z,69.4
2016-10-01T12:03:44.218Z,69.3
2016-10-01T12:04:44.378Z,69.49
2016-10-01T12:05:44.130Z,69.01
2016-10-01T12:06:43.775Z,68.73
2016-10-01T12:07:44.109Z,69.01
2016-10-01T12:08:44.222Z,68.73
2016-10-01T12:09:43.936Z,68.73
2016-10-01T12:10:44.116Z,68.82
2016-10-01T12:11:44.250Z,68.91
2016-10-01T12:12:43.495Z,68.53
2016-10-01T12:13:43.739Z,68.34
2016-10-01T12:14:43.707Z,68.63
2016-10-01T12:15:43.649Z,69.4
2016-10-01T12:16:43.620Z,69.56
2016-10-01T12:17:43.258Z,69.93
2016-10-01T12:18:43.711Z,70.03
2016-10-01T12:19:43.858Z,69.84
2016-10-01T12:20:43.411Z,69.74
2016-10-01T12:21:43.374Z,69.93
2016-10-01T12:22:43.559Z,69.93
2016-10-01T12:23:42.961Z,69.93
2016-10-01T12:24:42.935Z,69.93
2016-10-01T12:25:43.199Z,70.51
2016-10-01T12:26:43.143Z,69.93
2016-10-01T12:27:42.784Z,69.36
2016-10-01T12:28:43.238Z,69.07
2016-10-01T12:29:43.193Z,69.4
2016-10-01T12:30:43.184Z,69.2
2016-10-01T12:31:42.903Z,69.11
2016-10-01T12:32:42.860Z,69.68
2016-10-01T12:33:42.815Z,69.11
2016-10-01T12:34:42.765Z,69.11
2016-10-01T12:35:42.722Z,69.2
2016-10-01T12:36:42.665Z,68.63
2016-10-01T12:37:42.816Z,68.73
2016-10-01T12:38:42.263Z,68.73
2016-10-01T12:39:42.520Z,68.82
2016-10-01T12:40:42.677Z,68.91
2016-10-01T12:41:42.428Z,69.01
2016-10-01T12:42:42.410Z,69.3
2016-10-01T12:43:42.340Z,69.11
2016-10-01T12:44:42.486Z,69.11
2016-10-01T12:45:42.238Z,68.73
2016-10-01T12:46:42.198Z,68.73
2016-10-01T12:47:42.154Z,68.34
2016-10-01T12:48:42.098Z,68.63
2016-10-01T12:49:42.085Z,68.34
2016-10-01T12:50:42.203Z,68.37
2016-10-01T12:51:42.083Z,67.8
2016-10-01T12:52:41.606Z,67.32
2016-10-01T12:53:42.076Z,67.41
2016-10-01T12:54:42.038Z,67.41
2016-10-01T12:55:41.681Z,67.32